sensor_id;sensor_type;location;lat;lon;timestamp;temperature;humidity
79571;DHT22;69034;49.444;7.758;2023-05-16T00:01:50;16.60;52.00
79571;DHT22;69034;49.444;7.758;2023-05-16T00:05:51;16.60;51.90
79571;DHT22;69034;49.444;7.758;2023-05-16T00:09:51;16.70;51.80
79571;DHT22;69034;49.444;7.758;2023-05-16T00:13:52;16.70;51.80
79571;DHT22;69034;49.444;7.758;2023-05-16T00:17:53;16.70;51.80
79571;DHT22;69034;49.444;7.758;2023-05-16T00:21:57;16.70;51.60
79571;DHT22;69034;49.444;7.758;2023-05-16T00:25:58;16.70;51.60
79571;DHT22;69034;49.444;7.758;2023-05-16T00:29:59;16.60;51.50
79571;DHT22;69034;49.444;7.758;2023-05-16T00:34:00;16.50;51.60
79571;DHT22;69034;49.444;7.758;2023-05-16T00:38:02;16.40;51.70
79571;DHT22;69034;49.444;7.758;2023-05-16T00:42:03;16.30;51.80
79571;DHT22;69034;49.444;7.758;2023-05-16T00:46:04;16.20;51.90
79571;DHT22;69034;49.444;7.758;2023-05-16T00:50:05;16.10;52.00
79571;DHT22;69034;49.444;7.758;2023-05-16T00:54:06;16.00;52.00
79571;DHT22;69034;49.444;7.758;2023-05-16T00:58:10;16.00;52.20
79571;DHT22;69034;49.444;7.758;2023-05-16T01:02:11;15.90;52.20
79571;DHT22;69034;49.444;7.758;2023-05-16T01:06:12;15.90;52.20
79571;DHT22;69034;49.444;7.758;2023-05-16T01:10:13;15.80;52.20
79571;DHT22;69034;49.444;7.758;2023-05-16T01:18:55;15.80;52.10
79571;DHT22;69034;49.444;7.758;2023-05-16T01:23:25;15.90;52.10
79571;DHT22;69034;49.444;7.758;2023-05-16T01:27:27;15.80;52.20
79571;DHT22;69034;49.444;7.758;2023-05-16T01:31:29;15.80;52.20
79571;DHT22;69034;49.444;7.758;2023-05-16T01:35:30;15.80;52.30
79571;DHT22;69034;49.444;7.758;2023-05-16T01:39:43;15.80;52.30
79571;DHT22;69034;49.444;7.758;2023-05-16T01:43:50;15.80;52.50
79571;DHT22;69034;49.444;7.758;2023-05-16T01:47:59;15.80;52.40
79571;DHT22;69034;49.444;7.758;2023-05-16T01:52:12;15.80;52.50
79571;DHT22;69034;49.444;7.758;2023-05-16T01:56:15;15.80;52.60
79571;DHT22;69034;49.444;7.758;2023-05-16T02:00:16;15.80;52.70
79571;DHT22;69034;49.444;7.758;2023-05-16T02:04:17;15.80;52.90
79571;DHT22;69034;49.444;7.758;2023-05-16T02:08:17;15.80;53.00
79571;DHT22;69034;49.444;7.758;2023-05-16T02:12:18;15.70;53.10
79571;DHT22;69034;49.444;7.758;2023-05-16T02:16:19;15.70;53.30
79571;DHT22;69034;49.444;7.758;2023-05-16T02:20:20;15.90;53.60
79571;DHT22;69034;49.444;7.758;2023-05-16T02:24:20;16.00;53.80
79571;DHT22;69034;49.444;7.758;2023-05-16T02:28:21;16.10;53.90
79571;DHT22;69034;49.444;7.758;2023-05-16T02:32:22;16.20;53.90
79571;DHT22;69034;49.444;7.758;2023-05-16T02:36:24;16.20;54.10
79571;DHT22;69034;49.444;7.758;2023-05-16T02:40:25;16.30;54.10
79571;DHT22;69034;49.444;7.758;2023-05-16T02:44:27;16.30;54.20
79571;DHT22;69034;49.444;7.758;2023-05-16T02:48:27;16.40;54.00
79571;DHT22;69034;49.444;7.758;2023-05-16T02:52:28;16.40;54.00
79571;DHT22;69034;49.444;7.758;2023-05-16T02:56:29;16.40;54.10
79571;DHT22;69034;49.444;7.758;2023-05-16T03:00:29;16.40;53.80
79571;DHT22;69034;49.444;7.758;2023-05-16T03:04:30;16.30;53.80
79571;DHT22;69034;49.444;7.758;2023-05-16T03:08:31;16.20;53.80
79571;DHT22;69034;49.444;7.758;2023-05-16T03:12:31;16.20;53.80
79571;DHT22;69034;49.444;7.758;2023-05-16T03:16:34;16.10;53.90
79571;DHT22;69034;49.444;7.758;2023-05-16T03:20:36;16.00;53.80
79571;DHT22;69034;49.444;7.758;2023-05-16T03:24:37;16.00;54.00
79571;DHT22;69034;49.444;7.758;2023-05-16T03:28:38;15.90;54.00
79571;DHT22;69034;49.444;7.758;2023-05-16T03:32:40;15.90;54.10
79571;DHT22;69034;49.444;7.758;2023-05-16T03:36:41;15.80;54.10
79571;DHT22;69034;49.444;7.758;2023-05-16T03:40:41;15.80;54.10
79571;DHT22;69034;49.444;7.758;2023-05-16T03:44:42;15.80;54.10
79571;DHT22;69034;49.444;7.758;2023-05-16T03:48:43;15.70;54.10
79571;DHT22;69034;49.444;7.758;2023-05-16T03:52:44;15.70;54.20
79571;DHT22;69034;49.444;7.758;2023-05-16T03:56:44;15.70;54.40
79571;DHT22;69034;49.444;7.758;2023-05-16T04:00:46;15.60;54.60
79571;DHT22;69034;49.444;7.758;2023-05-16T04:04:47;15.60;54.60
79571;DHT22;69034;49.444;7.758;2023-05-16T04:08:47;15.60;54.50
79571;DHT22;69034;49.444;7.758;2023-05-16T04:12:49;15.60;54.70
79571;DHT22;69034;49.444;7.758;2023-05-16T04:16:49;15.60;54.70
79571;DHT22;69034;49.444;7.758;2023-05-16T04:20:51;15.50;54.70
79571;DHT22;69034;49.444;7.758;2023-05-16T04:24:51;15.50;54.70
79571;DHT22;69034;49.444;7.758;2023-05-16T04:28:53;15.50;54.70
79571;DHT22;69034;49.444;7.758;2023-05-16T04:32:53;15.50;54.60
79571;DHT22;69034;49.444;7.758;2023-05-16T04:36:54;15.50;54.70
79571;DHT22;69034;49.444;7.758;2023-05-16T04:40:55;15.60;54.60
79571;DHT22;69034;49.444;7.758;2023-05-16T04:44:56;15.70;54.50
79571;DHT22;69034;49.444;7.758;2023-05-16T04:48:56;15.70;54.50
79571;DHT22;69034;49.444;7.758;2023-05-16T04:52:57;15.90;54.50
79571;DHT22;69034;49.444;7.758;2023-05-16T04:56:58;16.00;54.80
79571;DHT22;69034;49.444;7.758;2023-05-16T05:00:59;16.20;54.80
79571;DHT22;69034;49.444;7.758;2023-05-16T05:05:01;16.50;54.60
79571;DHT22;69034;49.444;7.758;2023-05-16T05:09:01;16.60;54.40
79571;DHT22;69034;49.444;7.758;2023-05-16T05:13:02;16.80;54.10
79571;DHT22;69034;49.444;7.758;2023-05-16T05:17:03;16.90;54.00
79571;DHT22;69034;49.444;7.758;2023-05-16T05:21:04;17.00;53.90
79571;DHT22;69034;49.444;7.758;2023-05-16T05:25:07;17.10;53.70
79571;DHT22;69034;49.444;7.758;2023-05-16T05:29:08;17.20;53.40
79571;DHT22;69034;49.444;7.758;2023-05-16T05:33:10;17.40;53.10
79571;DHT22;69034;49.444;7.758;2023-05-16T05:37:12;17.50;52.70
79571;DHT22;69034;49.444;7.758;2023-05-16T05:41:15;17.60;52.50
79571;DHT22;69034;49.444;7.758;2023-05-16T05:45:15;17.50;52.50
79571;DHT22;69034;49.444;7.758;2023-05-16T05:49:16;17.40;52.50
79571;DHT22;69034;49.444;7.758;2023-05-16T05:53:17;17.30;52.60
79571;DHT22;69034;49.444;7.758;2023-05-16T05:57:19;17.20;52.70
79571;DHT22;69034;49.444;7.758;2023-05-16T06:01:21;17.20;52.80
79571;DHT22;69034;49.444;7.758;2023-05-16T06:05:22;17.10;52.70
79571;DHT22;69034;49.444;7.758;2023-05-16T06:09:23;17.20;52.60
79571;DHT22;69034;49.444;7.758;2023-05-16T06:13:24;17.20;52.60
79571;DHT22;69034;49.444;7.758;2023-05-16T06:17:25;17.20;52.50
79571;DHT22;69034;49.444;7.758;2023-05-16T06:21:25;17.20;52.60
79571;DHT22;69034;49.444;7.758;2023-05-16T06:25:26;17.20;52.50
79571;DHT22;69034;49.444;7.758;2023-05-16T06:29:27;17.20;52.40
79571;DHT22;69034;49.444;7.758;2023-05-16T06:33:27;17.20;52.50
79571;DHT22;69034;49.444;7.758;2023-05-16T06:37:28;17.20;52.40
79571;DHT22;69034;49.444;7.758;2023-05-16T06:41:29;17.10;52.60
79571;DHT22;69034;49.444;7.758;2023-05-16T06:45:29;17.10;52.60
79571;DHT22;69034;49.444;7.758;2023-05-16T06:49:30;17.10;52.60
79571;DHT22;69034;49.444;7.758;2023-05-16T06:53:30;17.10;52.50
79571;DHT22;69034;49.444;7.758;2023-05-16T06:57:31;17.20;52.50
79571;DHT22;69034;49.444;7.758;2023-05-16T07:01:32;17.20;52.50
79571;DHT22;69034;49.444;7.758;2023-05-16T07:05:32;17.10;52.50
79571;DHT22;69034;49.444;7.758;2023-05-16T07:09:33;17.00;52.60
79571;DHT22;69034;49.444;7.758;2023-05-16T07:13:34;17.00;52.60
79571;DHT22;69034;49.444;7.758;2023-05-16T07:17:34;17.00;52.60
79571;DHT22;69034;49.444;7.758;2023-05-16T07:21:35;17.00;52.70
79571;DHT22;69034;49.444;7.758;2023-05-16T07:25:36;17.00;52.80
79571;DHT22;69034;49.444;7.758;2023-05-16T07:29:38;17.10;52.90
79571;DHT22;69034;49.444;7.758;2023-05-16T07:33:39;17.20;52.80
79571;DHT22;69034;49.444;7.758;2023-05-16T07:37:40;17.30;52.60
79571;DHT22;69034;49.444;7.758;2023-05-16T07:41:41;17.40;52.40
79571;DHT22;69034;49.444;7.758;2023-05-16T07:45:42;17.40;52.40
79571;DHT22;69034;49.444;7.758;2023-05-16T07:49:43;17.40;52.40
79571;DHT22;69034;49.444;7.758;2023-05-16T07:53:43;17.40;52.40
79571;DHT22;69034;49.444;7.758;2023-05-16T07:57:44;17.40;52.20
79571;DHT22;69034;49.444;7.758;2023-05-16T08:01:45;17.40;52.30
79571;DHT22;69034;49.444;7.758;2023-05-16T08:05:46;17.50;52.10
79571;DHT22;69034;49.444;7.758;2023-05-16T08:09:48;17.40;51.80
79571;DHT22;69034;49.444;7.758;2023-05-16T08:13:49;17.40;51.70
79571;DHT22;69034;49.444;7.758;2023-05-16T08:17:49;17.40;51.50
79571;DHT22;69034;49.444;7.758;2023-05-16T08:21:51;17.60;51.20
79571;DHT22;69034;49.444;7.758;2023-05-16T08:25:51;17.70;50.90
79571;DHT22;69034;49.444;7.758;2023-05-16T08:29:54;17.60;51.00
79571;DHT22;69034;49.444;7.758;2023-05-16T08:33:55;17.60;50.70
79571;DHT22;69034;49.444;7.758;2023-05-16T08:37:55;17.70;50.60
79571;DHT22;69034;49.444;7.758;2023-05-16T08:41:56;17.70;50.50
79571;DHT22;69034;49.444;7.758;2023-05-16T08:45:58;17.90;50.40
79571;DHT22;69034;49.444;7.758;2023-05-16T08:49:59;17.90;50.40
79571;DHT22;69034;49.444;7.758;2023-05-16T08:54:03;17.90;50.20
79571;DHT22;69034;49.444;7.758;2023-05-16T08:58:05;18.00;49.90
79571;DHT22;69034;49.444;7.758;2023-05-16T09:02:06;18.10;49.50
79571;DHT22;69034;49.444;7.758;2023-05-16T09:06:07;18.30;49.00
79571;DHT22;69034;49.444;7.758;2023-05-16T09:10:09;18.30;48.70
79571;DHT22;69034;49.444;7.758;2023-05-16T09:14:10;18.20;48.70
79571;DHT22;69034;49.444;7.758;2023-05-16T09:18:11;18.20;48.40
79571;DHT22;69034;49.444;7.758;2023-05-16T09:22:14;18.10;48.60
79571;DHT22;69034;49.444;7.758;2023-05-16T09:26:15;18.00;48.80
79571;DHT22;69034;49.444;7.758;2023-05-16T09:30:15;17.90;48.90
79571;DHT22;69034;49.444;7.758;2023-05-16T09:34:21;17.80;49.00
79571;DHT22;69034;49.444;7.758;2023-05-16T09:38:22;17.80;49.00
79571;DHT22;69034;49.444;7.758;2023-05-16T09:42:24;17.80;48.80
79571;DHT22;69034;49.444;7.758;2023-05-16T09:46:25;17.80;48.70
79571;DHT22;69034;49.444;7.758;2023-05-16T09:50:27;17.80;48.40
79571;DHT22;69034;49.444;7.758;2023-05-16T09:54:32;18.00;48.00
79571;DHT22;69034;49.444;7.758;2023-05-16T09:58:34;18.30;47.60
79571;DHT22;69034;49.444;7.758;2023-05-16T10:02:36;18.80;47.20
79571;DHT22;69034;49.444;7.758;2023-05-16T10:06:40;19.10;46.80
79571;DHT22;69034;49.444;7.758;2023-05-16T10:10:41;19.30;46.30
79571;DHT22;69034;49.444;7.758;2023-05-16T10:14:44;19.40;46.30
79571;DHT22;69034;49.444;7.758;2023-05-16T10:18:45;19.50;46.30
79571;DHT22;69034;49.444;7.758;2023-05-16T10:22:46;19.50;46.40
79571;DHT22;69034;49.444;7.758;2023-05-16T10:26:49;19.60;46.30
79571;DHT22;69034;49.444;7.758;2023-05-16T10:30:51;19.70;46.30
79571;DHT22;69034;49.444;7.758;2023-05-16T10:34:53;19.70;46.50
79571;DHT22;69034;49.444;7.758;2023-05-16T10:38:55;19.60;46.80
79571;DHT22;69034;49.444;7.758;2023-05-16T10:42:58;19.50;46.90
79571;DHT22;69034;49.444;7.758;2023-05-16T10:46:59;19.40;46.80
79571;DHT22;69034;49.444;7.758;2023-05-16T10:51:02;19.20;47.10
79571;DHT22;69034;49.444;7.758;2023-05-16T10:55:03;18.90;47.50
79571;DHT22;69034;49.444;7.758;2023-05-16T10:59:21;18.80;47.60
79571;DHT22;69034;49.444;7.758;2023-05-16T11:03:23;18.70;47.50
79571;DHT22;69034;49.444;7.758;2023-05-16T11:07:25;19.00;47.10
79571;DHT22;69034;49.444;7.758;2023-05-16T11:16:27;19.70;45.80
79571;DHT22;69034;49.444;7.758;2023-05-16T11:20:33;19.80;43.70
79571;DHT22;69034;49.444;7.758;2023-05-16T11:24:36;19.90;43.70
79571;DHT22;69034;49.444;7.758;2023-05-16T11:28:40;19.90;43.80
79571;DHT22;69034;49.444;7.758;2023-05-16T11:32:47;20.00;43.70
79571;DHT22;69034;49.444;7.758;2023-05-16T11:36:49;20.20;43.30
79571;DHT22;69034;49.444;7.758;2023-05-16T11:40:50;20.80;42.60
79571;DHT22;69034;49.444;7.758;2023-05-16T11:45:06;21.40;41.80
79571;DHT22;69034;49.444;7.758;2023-05-16T11:49:08;22.10;40.80
79571;DHT22;69034;49.444;7.758;2023-05-16T11:53:09;22.50;40.40
79571;DHT22;69034;49.444;7.758;2023-05-16T11:57:09;22.60;40.20
79571;DHT22;69034;49.444;7.758;2023-05-16T12:01:10;22.70;40.10
79571;DHT22;69034;49.444;7.758;2023-05-16T12:05:11;22.90;40.10
79571;DHT22;69034;49.444;7.758;2023-05-16T12:09:13;23.10;39.60
79571;DHT22;69034;49.444;7.758;2023-05-16T12:13:14;23.30;39.10
79571;DHT22;69034;49.444;7.758;2023-05-16T12:17:15;23.40;38.70
79571;DHT22;69034;49.444;7.758;2023-05-16T12:21:16;23.80;38.30
79571;DHT22;69034;49.444;7.758;2023-05-16T12:29:26;25.30;35.90
79571;DHT22;69034;49.444;7.758;2023-05-16T12:33:28;26.40;34.90
79571;DHT22;69034;49.444;7.758;2023-05-16T12:37:29;29.20;33.20
79571;DHT22;69034;49.444;7.758;2023-05-16T12:41:30;32.10;30.50
79571;DHT22;69034;49.444;7.758;2023-05-16T12:45:32;34.80;28.60
79571;DHT22;69034;49.444;7.758;2023-05-16T12:49:32;37.70;26.60
79571;DHT22;69034;49.444;7.758;2023-05-16T12:53:43;41.00;24.60
79571;DHT22;69034;49.444;7.758;2023-05-16T12:57:45;43.10;18.30
79571;DHT22;69034;49.444;7.758;2023-05-16T13:01:47;43.30;17.50
79571;DHT22;69034;49.444;7.758;2023-05-16T13:05:47;40.70;16.20
79571;DHT22;69034;49.444;7.758;2023-05-16T13:09:48;38.20;18.90
79571;DHT22;69034;49.444;7.758;2023-05-16T13:13:49;36.50;17.50
79571;DHT22;69034;49.444;7.758;2023-05-16T13:17:49;34.10;18.60
79571;DHT22;69034;49.444;7.758;2023-05-16T13:21:50;35.60;17.60
79571;DHT22;69034;49.444;7.758;2023-05-16T13:25:51;35.20;17.30
79571;DHT22;69034;49.444;7.758;2023-05-16T13:29:52;34.00;17.90
79571;DHT22;69034;49.444;7.758;2023-05-16T13:33:53;34.30;17.90
79571;DHT22;69034;49.444;7.758;2023-05-16T13:37:53;34.20;17.70
79571;DHT22;69034;49.444;7.758;2023-05-16T13:41:54;38.30;14.80
79571;DHT22;69034;49.444;7.758;2023-05-16T13:45:55;38.80;14.00
79571;DHT22;69034;49.444;7.758;2023-05-16T13:49:56;38.70;14.80
79571;DHT22;69034;49.444;7.758;2023-05-16T13:53:57;41.40;13.80
79571;DHT22;69034;49.444;7.758;2023-05-16T13:57:58;40.10;13.90
79571;DHT22;69034;49.444;7.758;2023-05-16T14:01:59;40.80;13.20
79571;DHT22;69034;49.444;7.758;2023-05-16T14:06:00;43.40;12.00
79571;DHT22;69034;49.444;7.758;2023-05-16T14:10:01;41.20;12.10
79571;DHT22;69034;49.444;7.758;2023-05-16T14:14:01;37.30;12.80
79571;DHT22;69034;49.444;7.758;2023-05-16T14:18:02;40.30;12.90
79571;DHT22;69034;49.444;7.758;2023-05-16T14:22:04;37.70;13.70
79571;DHT22;69034;49.444;7.758;2023-05-16T14:26:05;41.80;12.90
79571;DHT22;69034;49.444;7.758;2023-05-16T14:30:06;44.70;11.30
79571;DHT22;69034;49.444;7.758;2023-05-16T14:34:07;45.80;9.80
79571;DHT22;69034;49.444;7.758;2023-05-16T14:38:08;45.60;9.60
79571;DHT22;69034;49.444;7.758;2023-05-16T14:42:09;40.30;11.00
79571;DHT22;69034;49.444;7.758;2023-05-16T14:46:11;36.20;12.00
79571;DHT22;69034;49.444;7.758;2023-05-16T14:50:12;33.40;14.00
79571;DHT22;69034;49.444;7.758;2023-05-16T14:54:13;32.60;15.90
79571;DHT22;69034;49.444;7.758;2023-05-16T14:58:17;35.00;13.30
79571;DHT22;69034;49.444;7.758;2023-05-16T15:02:18;35.70;13.40
79571;DHT22;69034;49.444;7.758;2023-05-16T15:06:19;37.90;12.10
79571;DHT22;69034;49.444;7.758;2023-05-16T15:10:19;40.30;10.60
79571;DHT22;69034;49.444;7.758;2023-05-16T15:14:20;40.10;10.30
79571;DHT22;69034;49.444;7.758;2023-05-16T15:18:20;41.00;9.60
79571;DHT22;69034;49.444;7.758;2023-05-16T15:22:21;41.40;9.30
79571;DHT22;69034;49.444;7.758;2023-05-16T15:26:22;41.40;9.20
79571;DHT22;69034;49.444;7.758;2023-05-16T15:30:22;41.40;9.30
79571;DHT22;69034;49.444;7.758;2023-05-16T15:34:23;41.70;9.70
79571;DHT22;69034;49.444;7.758;2023-05-16T15:38:25;41.70;9.50
79571;DHT22;69034;49.444;7.758;2023-05-16T15:42:26;41.90;9.10
79571;DHT22;69034;49.444;7.758;2023-05-16T15:46:26;41.70;8.40
79571;DHT22;69034;49.444;7.758;2023-05-16T15:50:29;39.50;8.80
79571;DHT22;69034;49.444;7.758;2023-05-16T15:54:33;39.60;9.10
79571;DHT22;69034;49.444;7.758;2023-05-16T15:58:33;39.60;9.10
79571;DHT22;69034;49.444;7.758;2023-05-16T16:02:34;39.50;9.40
79571;DHT22;69034;49.444;7.758;2023-05-16T16:06:35;39.50;9.30
79571;DHT22;69034;49.444;7.758;2023-05-16T16:10:35;38.50;9.20
79571;DHT22;69034;49.444;7.758;2023-05-16T16:14:37;38.00;9.40
79571;DHT22;69034;49.444;7.758;2023-05-16T16:18:38;37.90;9.50
79571;DHT22;69034;49.444;7.758;2023-05-16T16:22:39;37.70;9.70
79571;DHT22;69034;49.444;7.758;2023-05-16T16:26:41;37.60;9.80
79571;DHT22;69034;49.444;7.758;2023-05-16T16:30:42;37.50;9.70
79571;DHT22;69034;49.444;7.758;2023-05-16T16:34:43;37.10;9.70
79571;DHT22;69034;49.444;7.758;2023-05-16T16:38:44;36.80;9.50
79571;DHT22;69034;49.444;7.758;2023-05-16T16:42:46;36.30;9.70
79571;DHT22;69034;49.444;7.758;2023-05-16T16:46:47;36.10;9.60
79571;DHT22;69034;49.444;7.758;2023-05-16T16:50:48;35.90;9.60
79571;DHT22;69034;49.444;7.758;2023-05-16T16:54:48;35.80;9.80
79571;DHT22;69034;49.444;7.758;2023-05-16T16:58:49;35.50;9.80
79571;DHT22;69034;49.444;7.758;2023-05-16T17:02:52;35.20;9.90
79571;DHT22;69034;49.444;7.758;2023-05-16T17:06:53;35.20;10.30
79571;DHT22;69034;49.444;7.758;2023-05-16T17:10:53;35.50;10.20
79571;DHT22;69034;49.444;7.758;2023-05-16T17:14:54;35.80;10.60
79571;DHT22;69034;49.444;7.758;2023-05-16T17:19:00;35.90;11.00
79571;DHT22;69034;49.444;7.758;2023-05-16T17:23:02;35.70;11.50
79571;DHT22;69034;49.444;7.758;2023-05-16T17:27:03;35.50;11.90
79571;DHT22;69034;49.444;7.758;2023-05-16T17:31:04;35.00;11.80
79571;DHT22;69034;49.444;7.758;2023-05-16T17:35:05;34.40;12.50
79571;DHT22;69034;49.444;7.758;2023-05-16T17:39:06;33.90;13.00
79571;DHT22;69034;49.444;7.758;2023-05-16T17:43:08;33.50;13.20
79571;DHT22;69034;49.444;7.758;2023-05-16T17:47:09;33.10;13.60
79571;DHT22;69034;49.444;7.758;2023-05-16T17:51:10;32.60;14.60
79571;DHT22;69034;49.444;7.758;2023-05-16T17:55:11;32.30;15.00
79571;DHT22;69034;49.444;7.758;2023-05-16T17:59:13;31.90;14.60
79571;DHT22;69034;49.444;7.758;2023-05-16T18:03:14;31.50;14.80
79571;DHT22;69034;49.444;7.758;2023-05-16T18:07:16;31.10;15.30
79571;DHT22;69034;49.444;7.758;2023-05-16T18:11:16;30.30;16.00
79571;DHT22;69034;49.444;7.758;2023-05-16T18:15:17;29.50;16.70
79571;DHT22;69034;49.444;7.758;2023-05-16T18:19:18;28.90;17.20
79571;DHT22;69034;49.444;7.758;2023-05-16T18:23:19;28.30;17.50
79571;DHT22;69034;49.444;7.758;2023-05-16T18:27:20;27.70;18.10
79571;DHT22;69034;49.444;7.758;2023-05-16T18:31:22;27.10;18.80
79571;DHT22;69034;49.444;7.758;2023-05-16T18:35:24;26.50;19.80
79571;DHT22;69034;49.444;7.758;2023-05-16T18:39:26;25.90;24.10
79571;DHT22;69034;49.444;7.758;2023-05-16T18:43:27;25.50;24.80
79571;DHT22;69034;49.444;7.758;2023-05-16T18:47:28;25.00;25.10
79571;DHT22;69034;49.444;7.758;2023-05-16T18:51:29;24.60;25.60
79571;DHT22;69034;49.444;7.758;2023-05-16T18:55:30;24.20;25.70
79571;DHT22;69034;49.444;7.758;2023-05-16T18:59:31;23.80;26.30
79571;DHT22;69034;49.444;7.758;2023-05-16T19:03:32;23.40;26.70
79571;DHT22;69034;49.444;7.758;2023-05-16T19:07:33;23.00;27.30
79571;DHT22;69034;49.444;7.758;2023-05-16T19:11:35;22.70;27.60
79571;DHT22;69034;49.444;7.758;2023-05-16T19:15:36;22.30;28.00
79571;DHT22;69034;49.444;7.758;2023-05-16T19:19:37;22.00;28.00
79571;DHT22;69034;49.444;7.758;2023-05-16T19:23:38;21.60;28.00
79571;DHT22;69034;49.444;7.758;2023-05-16T19:27:39;21.20;28.00
79571;DHT22;69034;49.444;7.758;2023-05-16T19:31:39;20.90;28.40
79571;DHT22;69034;49.444;7.758;2023-05-16T19:35:40;20.60;28.70
79571;DHT22;69034;49.444;7.758;2023-05-16T19:39:41;20.40;29.30
79571;DHT22;69034;49.444;7.758;2023-05-16T19:43:41;20.10;29.50
79571;DHT22;69034;49.444;7.758;2023-05-16T19:47:42;19.90;29.90
79571;DHT22;69034;49.444;7.758;2023-05-16T19:51:43;19.60;30.30
79571;DHT22;69034;49.444;7.758;2023-05-16T19:55:43;19.40;30.60
79571;DHT22;69034;49.444;7.758;2023-05-16T19:59:46;19.20;30.90
79571;DHT22;69034;49.444;7.758;2023-05-16T20:03:46;19.00;31.20
79571;DHT22;69034;49.444;7.758;2023-05-16T20:07:47;18.80;31.40
79571;DHT22;69034;49.444;7.758;2023-05-16T20:11:48;18.70;31.60
79571;DHT22;69034;49.444;7.758;2023-05-16T20:15:49;18.50;31.90
79571;DHT22;69034;49.444;7.758;2023-05-16T20:19:50;18.40;31.90
79571;DHT22;69034;49.444;7.758;2023-05-16T20:23:51;18.20;32.20
79571;DHT22;69034;49.444;7.758;2023-05-16T20:31:55;18.00;34.00
79571;DHT22;69034;49.444;7.758;2023-05-16T20:35:56;18.10;34.30
79571;DHT22;69034;49.444;7.758;2023-05-16T20:39:56;18.00;34.60
79571;DHT22;69034;49.444;7.758;2023-05-16T20:43:57;18.00;34.90
79571;DHT22;69034;49.444;7.758;2023-05-16T20:47:58;18.00;34.90
79571;DHT22;69034;49.444;7.758;2023-05-16T20:51:58;17.90;35.00
79571;DHT22;69034;49.444;7.758;2023-05-16T20:55:59;17.80;35.00
79571;DHT22;69034;49.444;7.758;2023-05-16T21:00:00;17.70;35.00
79571;DHT22;69034;49.444;7.758;2023-05-16T21:04:00;17.60;35.10
79571;DHT22;69034;49.444;7.758;2023-05-16T21:08:01;17.50;35.30
79571;DHT22;69034;49.444;7.758;2023-05-16T21:12:02;17.50;35.20
79571;DHT22;69034;49.444;7.758;2023-05-16T21:16:03;17.40;35.60
79571;DHT22;69034;49.444;7.758;2023-05-16T21:20:04;17.30;35.30
79571;DHT22;69034;49.444;7.758;2023-05-16T21:24:05;17.10;35.30
79571;DHT22;69034;49.444;7.758;2023-05-16T21:28:06;16.90;35.50
79571;DHT22;69034;49.444;7.758;2023-05-16T21:32:07;16.70;35.50
79571;DHT22;69034;49.444;7.758;2023-05-16T21:36:08;16.50;35.90
79571;DHT22;69034;49.444;7.758;2023-05-16T21:40:09;16.30;36.00
79571;DHT22;69034;49.444;7.758;2023-05-16T21:44:13;16.20;36.20
79571;DHT22;69034;49.444;7.758;2023-05-16T21:48:16;16.10;36.30
79571;DHT22;69034;49.444;7.758;2023-05-16T21:52:17;15.90;36.40
79571;DHT22;69034;49.444;7.758;2023-05-16T21:56:17;15.80;36.40
79571;DHT22;69034;49.444;7.758;2023-05-16T22:00:18;15.70;36.60
79571;DHT22;69034;49.444;7.758;2023-05-16T22:04:19;15.60;36.70
79571;DHT22;69034;49.444;7.758;2023-05-16T22:08:20;15.50;36.80
79571;DHT22;69034;49.444;7.758;2023-05-16T22:12:20;15.40;36.80
79571;DHT22;69034;49.444;7.758;2023-05-16T22:16:21;15.30;37.10
79571;DHT22;69034;49.444;7.758;2023-05-16T22:20:22;15.20;37.40
79571;DHT22;69034;49.444;7.758;2023-05-16T22:24:23;15.10;37.40
79571;DHT22;69034;49.444;7.758;2023-05-16T22:28:23;15.00;37.70
79571;DHT22;69034;49.444;7.758;2023-05-16T22:32:24;15.00;37.70
79571;DHT22;69034;49.444;7.758;2023-05-16T22:36:24;14.90;37.80
79571;DHT22;69034;49.444;7.758;2023-05-16T22:40:25;15.00;38.00
79571;DHT22;69034;49.444;7.758;2023-05-16T22:44:27;15.10;38.10
79571;DHT22;69034;49.444;7.758;2023-05-16T22:48:28;15.10;38.20
79571;DHT22;69034;49.444;7.758;2023-05-16T22:52:29;15.10;38.20
79571;DHT22;69034;49.444;7.758;2023-05-16T22:56:29;15.10;38.20
79571;DHT22;69034;49.444;7.758;2023-05-16T23:00:30;15.10;38.20
79571;DHT22;69034;49.444;7.758;2023-05-16T23:04:31;15.10;38.30
79571;DHT22;69034;49.444;7.758;2023-05-16T23:08:31;15.10;38.30
79571;DHT22;69034;49.444;7.758;2023-05-16T23:12:32;15.00;38.30
79571;DHT22;69034;49.444;7.758;2023-05-16T23:16:33;14.90;38.40
79571;DHT22;69034;49.444;7.758;2023-05-16T23:20:35;14.70;38.50
79571;DHT22;69034;49.444;7.758;2023-05-16T23:24:36;14.50;38.60
79571;DHT22;69034;49.444;7.758;2023-05-16T23:28:36;14.40;38.60
79571;DHT22;69034;49.444;7.758;2023-05-16T23:32:37;14.30;38.80
79571;DHT22;69034;49.444;7.758;2023-05-16T23:36:38;14.20;38.90
79571;DHT22;69034;49.444;7.758;2023-05-16T23:40:38;14.10;38.90
79571;DHT22;69034;49.444;7.758;2023-05-16T23:44:39;14.10;38.90
79571;DHT22;69034;49.444;7.758;2023-05-16T23:48:41;14.10;38.90
79571;DHT22;69034;49.444;7.758;2023-05-16T23:52:42;14.00;38.90
79571;DHT22;69034;49.444;7.758;2023-05-16T23:56:42;14.00;39.00
